Observation data for Amherst on 11/14/2019      Previous  Date  Next       Current Mesonet Observations  Soil Data  Daily Summary Page  Observations in Plain Language
KAMH 140600Z 36010KT 04/M03 A3011 RMK A01 T00361032  RH  062%=      5-min Rain = 0
KAMH 140605Z 36010KT 03/M03 A3011 RMK A01 T00341032  RH  062%=      5-min Rain = 0
KAMH 140610Z 35010KT 03/M03 A3011 RMK A01 T00331032  RH  063%=      5-min Rain = 0
KAMH 140615Z 35009KT 03/M03 A3011 RMK A01 T00311033  RH  063%=      5-min Rain = 0
KAMH 140620Z 35010KT 03/M03 A3011 RMK A01 T00301033  RH  064%=      5-min Rain = 0
KAMH 140625Z 35011KT 03/M03 A3012 RMK A01 T00311034  RH  063%=      5-min Rain = 0
KAMH 140630Z 35011KT 03/M04 A3012 RMK A01 T00301036  RH  062%=      5-min Rain = 0
KAMH 140635Z 35010KT 03/M04 A3012 RMK A01 T00281037  RH  062%=      5-min Rain = 0
KAMH 140640Z 35010KT 03/M04 A3012 RMK A01 T00271039  RH  062%=      5-min Rain = 0
KAMH 140645Z 35010KT 03/M04 A3012 RMK A01 T00291040  RH  061%=      5-min Rain = 0
KAMH 140650Z 35011KT 03/M04 A3012 RMK A01 T00291040  RH  060%=      5-min Rain = 0
KAMH 140655Z 35010KT 03/M04 A3012 RMK A01 T00301040  RH  060%=      5-min Rain = 0
KAMH 140700Z 35010KT 03/M04 A3013 RMK A01 T00301041  RH  060%=      5-min Rain = 0
KAMH 140705Z 35009KT 03/M04 A3013 RMK A01 T00291041  RH  060%=      5-min Rain = 0
KAMH 140710Z 35009KT 03/M04 A3013 RMK A01 T00291043  RH  059%=      5-min Rain = 0
KAMH 140715Z 35009KT 03/M04 A3013 RMK A01 T00291044  RH  059%=      5-min Rain = 0
KAMH 140720Z 35009KT 03/M05 A3013 RMK A01 T00291045  RH  058%=      5-min Rain = 0
KAMH 140725Z 36010KT 03/M05 A3013 RMK A01 T00301046  RH  058%=      5-min Rain = 0
KAMH 140730Z 36010KT 03/M05 A3014 RMK A01 T00301047  RH  057%=      5-min Rain = 0
KAMH 140735Z 35010KT 03/M05 A3014 RMK A01 T00291047  RH  057%=      5-min Rain = 0
KAMH 140740Z 35010KT 03/M05 A3014 RMK A01 T00281048  RH  058%=      5-min Rain = 0
KAMH 140745Z 35010KT 03/M05 A3014 RMK A01 T00281049  RH  057%=      5-min Rain = 0
KAMH 140750Z 36011KT 03/M05 A3014 RMK A01 T00281049  RH  057%=      5-min Rain = 0
KAMH 140755Z 36010KT 03/M05 A3014 RMK A01 T00281050  RH  057%=      5-min Rain = 0
KAMH 140800Z 36010KT 03/M05 A3015 RMK A01 T00271050  RH  057%=      5-min Rain = 0
KAMH 140805Z 36010KT 03/M05 A3015 RMK A01 T00271050  RH  057%=      5-min Rain = 0
KAMH 140810Z 36010KT 03/M05 A3015 RMK A01 T00261050  RH  057%=      5-min Rain = 0
KAMH 140815Z 35010KT 03/M05 A3016 RMK A01 T00261050  RH  058%=      5-min Rain = 0
KAMH 140820Z 35010KT 03/M05 A3016 RMK A01 T00251050  RH  058%=      5-min Rain = 0
KAMH 140825Z 35009KT 02/M05 A3016 RMK A01 T00241050  RH  058%=      5-min Rain = 0
KAMH 140830Z 35009KT 02/M05 A3017 RMK A01 T00231050  RH  059%=      5-min Rain = 0
KAMH 140835Z 34009KT 02/M05 A3017 RMK A01 T00221050  RH  059%=      5-min Rain = 0
KAMH 140840Z 35009KT 02/M05 A3017 RMK A01 T00201050  RH  060%=      5-min Rain = 0
KAMH 140845Z 35009KT 02/M05 A3017 RMK A01 T00191050  RH  060%=      5-min Rain = 0
KAMH 140850Z 35009KT 02/M05 A3018 RMK A01 T00191050  RH  060%=      5-min Rain = 0
KAMH 140855Z 35009KT 02/M05 A3018 RMK A01 T00181051  RH  060%=      5-min Rain = 0
KAMH 140900Z 36010KT 02/M05 A3018 RMK A01 T00181051  RH  060%=      5-min Rain = 0
KAMH 140905Z 36010KT 02/M05 A3018 RMK A01 T00171051  RH  061%=      5-min Rain = 0
KAMH 140910Z 35010KT 02/M05 A3018 RMK A01 T00171051  RH  061%=      5-min Rain = 0
KAMH 140915Z 35009KT 02/M05 A3019 RMK A01 T00151051  RH  061%=      5-min Rain = 0
KAMH 140920Z 35009KT 01/M05 A3019 RMK A01 T00141051  RH  062%=      5-min Rain = 0
KAMH 140925Z 36009KT 01/M05 A3019 RMK A01 T00141051  RH  062%=      5-min Rain = 0
KAMH 140930Z 00009KT 02/M05 A3019 RMK A01 T00151051  RH  062%=      5-min Rain = 0
KAMH 140935Z 00009KT 02/M05 A3019 RMK A01 T00161051  RH  061%=      5-min Rain = 0
KAMH 140940Z 00008KT 02/M05 A3019 RMK A01 T00161051  RH  061%=      5-min Rain = 0
KAMH 140945Z 00008KT 01/M05 A3019 RMK A01 T00141052  RH  062%=      5-min Rain = 0
KAMH 140950Z 00008KT 01/M05 A3019 RMK A01 T00131052  RH  062%=      5-min Rain = 0
KAMH 140955Z 36008KT 01/M05 A302 RMK A01 T00121052  RH  062%=      5-min Rain = 0
KAMH 141000Z 36008KT 01/M05 A302 RMK A01 T00111053  RH  063%=      5-min Rain = 0
KAMH 141005Z 35008KT 01/M05 A302 RMK A01 T00091052  RH  064%=      5-min Rain = 0
KAMH 141010Z 35009KT 01/M05 A302 RMK A01 T00071052  RH  065%=      5-min Rain = 0
KAMH 141015Z 35009KT 01/M05 A302 RMK A01 T00071052  RH  065%=      5-min Rain = 0
KAMH 141020Z 36009KT 01/M05 A302 RMK A01 T00071052  RH  065%=      5-min Rain = 0
KAMH 141025Z 35009KT 01/M05 A302 RMK A01 T00071052  RH  065%=      5-min Rain = 0
KAMH 141030Z 35009KT 01/M05 A302 RMK A01 T00061051  RH  065%=      5-min Rain = 0
KAMH 141035Z 35008KT 01/M05 A302 RMK A01 T00051052  RH  066%=      5-min Rain = 0
KAMH 141040Z 35008KT 00/M05 A302 RMK A01 T00031051  RH  067%=      5-min Rain = 0
KAMH 141045Z 34009KT 00/M05 A302 RMK A01 T00011051  RH  068%=      5-min Rain = 0
KAMH 141050Z 35008KT 00/M05 A3021 RMK A01 T00011051  RH  068%=      5-min Rain = 0
KAMH 141055Z 36007KT 00/M05 A3021 RMK A01 T00011050  RH  069%=      5-min Rain = 0
KAMH 141100Z 01007G12KT 00/M05 A3021 RMK A01 T00041048  RH  068%=      5-min Rain = 0
KAMH 141105Z 01007KT 01/M05 A3021 RMK A01 T00081048  RH  066%=      5-min Rain = 0
KAMH 141110Z 01006KT 01/M05 A3021 RMK A01 T00061049  RH  067%=      5-min Rain = 0
KAMH 141115Z 00006KT 00/M05 A3022 RMK A01 T00041049  RH  067%=      5-min Rain = 0
KAMH 141120Z 00007KT 00/M05 A3022 RMK A01 T00031049  RH  068%=      5-min Rain = 0
KAMH 141125Z 36007KT 00/M05 A3022 RMK A01 T00021049  RH  069%=      5-min Rain = 0
KAMH 141130Z 00007KT 00/M05 A3023 RMK A01 T00011048  RH  070%=      5-min Rain = 0
KAMH 141135Z 36008KT 00/05 A3023 RMK A01 T00000-48  RH  070%=      5-min Rain = 0
KAMH 141140Z 36008KT M00/M05 A3023 RMK A01 T10031049  RH  071%=      5-min Rain = 0
KAMH 141145Z 35008KT M00/M05 A3023 RMK A01 T10041049  RH  072%=      5-min Rain = 0
KAMH 141150Z 35009KT M01/M05 A3024 RMK A01 T10051048  RH  073%=      5-min Rain = 0
KAMH 141155Z 36009KT M01/M05 A3024 RMK A01 T10051048  RH  073%=      5-min Rain = 0
KAMH 141200Z 36009KT M01/M05 A3024 RMK A01 T10061048  RH  073%=      5-min Rain = 0
KAMH 141205Z 00007KT M01/M05 A3024 RMK A01 T10061048  RH  073%=      5-min Rain = 0
KAMH 141210Z 36008KT M01/M05 A3024 RMK A01 T10051047  RH  074%=      5-min Rain = 0
KAMH 141215Z 35008KT M01/M05 A3024 RMK A01 T10061047  RH  074%=      5-min Rain = 0
KAMH 141220Z 35008KT M01/M05 A3025 RMK A01 T10081047  RH  075%=      5-min Rain = 0
KAMH 141225Z 35008KT M01/M05 A3025 RMK A01 T10091047  RH  076%=      5-min Rain = 0
KAMH 141230Z 35008KT M01/M05 A3026 RMK A01 T10091046  RH  076%=      5-min Rain = 0
KAMH 141235Z 35007KT M01/M05 A3026 RMK A01 T10091046  RH  076%=      5-min Rain = 0
KAMH 141240Z 34008KT M01/M05 A3026 RMK A01 T10101046  RH  076%=      5-min Rain = 0
KAMH 141245Z 34009KT M01/M05 A3027 RMK A01 T10101046  RH  077%=      5-min Rain = 0
KAMH 141250Z 34009KT M01/M05 A3027 RMK A01 T10091046  RH  077%=      5-min Rain = 0
KAMH 141255Z 34008KT M01/M05 A3027 RMK A01 T10091047  RH  076%=      5-min Rain = 0
KAMH 141300Z 34008KT M01/M05 A3028 RMK A01 T10111048  RH  076%=      5-min Rain = 0
KAMH 141305Z 34009KT M01/M05 A3028 RMK A01 T10101048  RH  076%=      5-min Rain = 0
KAMH 141310Z 33008KT M01/M05 A3028 RMK A01 T10091048  RH  075%=      5-min Rain = 0
KAMH 141315Z 33008KT M01/M05 A3029 RMK A01 T10081048  RH  074%=      5-min Rain = 0
KAMH 141320Z 33008KT M01/M05 A3029 RMK A01 T10071048  RH  074%=      5-min Rain = 0
KAMH 141325Z 33007KT M01/M05 A3029 RMK A01 T10061048  RH  074%=      5-min Rain = 0
KAMH 141330Z 33008KT M01/M05 A303 RMK A01 T10071048  RH  074%=      5-min Rain = 0
KAMH 141335Z 33008KT M01/M05 A303 RMK A01 T10061048  RH  074%=      5-min Rain = 0
KAMH 141340Z 33009KT M01/M05 A3031 RMK A01 T10061047  RH  074%=      5-min Rain = 0
KAMH 141345Z 33008KT M00/M05 A3031 RMK A01 T10041046  RH  073%=      5-min Rain = 0
KAMH 141350Z 33007KT M00/M05 A3031 RMK A01 T10031046  RH  073%=      5-min Rain = 0
KAMH 141355Z 33007KT M00/M05 A3032 RMK A01 T10011045  RH  072%=      5-min Rain = 0
KAMH 141400Z 34007KT 00/M04 A3032 RMK A01 T00011044  RH  072%=      5-min Rain = 0
KAMH 141405Z 34007KT 00/M04 A3032 RMK A01 T00041043  RH  071%=      5-min Rain = 0
KAMH 141410Z 35007KT 01/M04 A3033 RMK A01 T00061042  RH  070%=      5-min Rain = 0
KAMH 141415Z 34007KT 01/M04 A3033 RMK A01 T00071042  RH  070%=      5-min Rain = 0
KAMH 141420Z 35006KT 01/M04 A3033 RMK A01 T00091040  RH  070%=      5-min Rain = 0
KAMH 141425Z 35006KT 01/M04 A3034 RMK A01 T00121039  RH  069%=      5-min Rain = 0
KAMH 141430Z 35006KT 02/M04 A3034 RMK A01 T00151037  RH  069%=      5-min Rain = 0
KAMH 141435Z 01006G11KT 02/M04 A3034 RMK A01 T00201035  RH  068%=      5-min Rain = 0
KAMH 141440Z 02007KT 02/M03 A3034 RMK A01 T00241033  RH  066%=      5-min Rain = 0
KAMH 141445Z 02007KT 03/M03 A3035 RMK A01 T00271031  RH  066%=      5-min Rain = 0
KAMH 141450Z 04006KT 03/M03 A3035 RMK A01 T00331027  RH  065%=      5-min Rain = 0
KAMH 141455Z 02008KT 03/M03 A3036 RMK A01 T00341027  RH  064%=      5-min Rain = 0
KAMH 141500Z 03009KT 04/M02 A3036 RMK A01 T00371024  RH  065%=      5-min Rain = 0
KAMH 141505Z 03008G13KT 04/M02 A3036 RMK A01 T00401022  RH  064%=      5-min Rain = 0
KAMH 141510Z 04008KT 05/M02 A3036 RMK A01 T00451018  RH  064%=      5-min Rain = 0
KAMH 141515Z 04009KT 05/M02 A3036 RMK A01 T00471017  RH  063%=      5-min Rain = 0
KAMH 141520Z 05010KT 05/M02 A3037 RMK A01 T00501016  RH  063%=      5-min Rain = 0
KAMH 141525Z 05010G15KT 05/M01 A3037 RMK A01 T00531013  RH  063%=      5-min Rain = 0
KAMH 141530Z 06010G15KT 06/M01 A3037 RMK A01 T00551012  RH  062%=      5-min Rain = 0
KAMH 141535Z 04010KT 06/M01 A3037 RMK A01 T00581010  RH  062%=      5-min Rain = 0
KAMH 141540Z 04013KT 06/M01 A3037 RMK A01 T00611006  RH  063%=      5-min Rain = 0
KAMH 141545Z 06013KT 06/M01 A3038 RMK A01 T00621006  RH  063%=      5-min Rain = 0
KAMH 141550Z 05012KT 06/M01 A3038 RMK A01 T00611006  RH  063%=      5-min Rain = 0
KAMH 141555Z 05012KT 06/M01 A3038 RMK A01 T00631006  RH  062%=      5-min Rain = 0
KAMH 141600Z 04011KT 07/M01 A3038 RMK A01 T00651006  RH  061%=      5-min Rain = 0
KAMH 141605Z 06014KT 07/M00 A3039 RMK A01 T00671004  RH  061%=      5-min Rain = 0
KAMH 141610Z 05012KT 07/M00 A3039 RMK A01 T00681004  RH  061%=      5-min Rain = 0
KAMH 141615Z 05011KT 07/M00 A3039 RMK A01 T00721002  RH  060%=      5-min Rain = 0
KAMH 141620Z 05013KT 07/M00 A3039 RMK A01 T00741002  RH  059%=      5-min Rain = 0
KAMH 141625Z 06014KT 08/M00 A3039 RMK A01 T00761001  RH  059%=      5-min Rain = 0
KAMH 141630Z 06014G19KT 08/M00 A304 RMK A01 T00771002  RH  058%=      5-min Rain = 0
KAMH 141635Z 07011G16KT 08/00 A304 RMK A01 T008200-0  RH  057%=      5-min Rain = 0
KAMH 141640Z 05012KT 08/M00 A304 RMK A01 T00801001  RH  057%=      5-min Rain = 0
KAMH 141645Z 06011KT 08/00 A304 RMK A01 T00840000  RH  056%=      5-min Rain = 0
KAMH 141650Z 06011KT 09/00 A304 RMK A01 T008500-0  RH  056%=      5-min Rain = 0
KAMH 141655Z 05013KT 09/M00 A304 RMK A01 T00861002  RH  055%=      5-min Rain = 0
KAMH 141700Z 05014KT 09/M00 A3041 RMK A01 T00871003  RH  054%=      5-min Rain = 0
KAMH 141705Z 05012KT 09/M00 A3041 RMK A01 T00881002  RH  054%=      5-min Rain = 0
KAMH 141710Z 05011G16KT 09/M00 A3041 RMK A01 T00881002  RH  054%=      5-min Rain = 0
KAMH 141715Z 06011G16KT 09/M00 A3041 RMK A01 T00881002  RH  054%=      5-min Rain = 0
KAMH 141720Z 06012KT 09/M00 A3041 RMK A01 T00941002  RH  052%=      5-min Rain = 0
KAMH 141725Z 06010G16KT 09/M00 A3041 RMK A01 T00911004  RH  052%=      5-min Rain = 0
KAMH 141730Z 07011G16KT 09/M00 A3041 RMK A01 T00931004  RH  051%=      5-min Rain = 0
KAMH 141735Z 06010KT 10/M00 A3041 RMK A01 T00981003  RH  050%=      5-min Rain = 0
KAMH 141740Z 05011G16KT 10/M00 A3041 RMK A01 T01001003  RH  049%=      5-min Rain = 0
KAMH 141745Z 06012G17KT 10/M01 A304 RMK A01 T00971005  RH  049%=      5-min Rain = 0
KAMH 141750Z 05011G16KT 10/M01 A304 RMK A01 T00981005  RH  049%=      5-min Rain = 0
KAMH 141755Z 04010KT 10/M01 A304 RMK A01 T00971005  RH  050%=      5-min Rain = 0
KAMH 141800Z 06008G13KT 10/M00 A304 RMK A01 T01001004  RH  049%=      5-min Rain = 0
KAMH 141805Z 04010KT 10/M01 A304 RMK A01 T01001006  RH  048%=      5-min Rain = 0
KAMH 141810Z 06010KT 10/M01 A3039 RMK A01 T01021006  RH  048%=      5-min Rain = 0
KAMH 141815Z 06010KT 10/M01 A3039 RMK A01 T01021007  RH  047%=      5-min Rain = 0
KAMH 141820Z 05011KT 10/M01 A3039 RMK A01 T01041009  RH  046%=      5-min Rain = 0
KAMH 141825Z 06008KT 10/M01 A3039 RMK A01 T01031008  RH  046%=      5-min Rain = 0
KAMH 141830Z 05008G13KT 11/M01 A3039 RMK A01 T01051010  RH  045%=      5-min Rain = 0
KAMH 141835Z 07009KT 11/M01 A3038 RMK A01 T01091009  RH  045%=      5-min Rain = 0
KAMH 141840Z 08008KT 11/M01 A3038 RMK A01 T01061010  RH  045%=      5-min Rain = 0
KAMH 141845Z 05008KT 11/M01 A3038 RMK A01 T01061014  RH  044%=      5-min Rain = 0
KAMH 141850Z 05009G14KT 11/M01 A3038 RMK A01 T01091013  RH  043%=      5-min Rain = 0
KAMH 141855Z 07009G15KT 11/M01 A3038 RMK A01 T01121013  RH  042%=      5-min Rain = 0
KAMH 141900Z 06009KT 11/M01 A3038 RMK A01 T01111014  RH  042%=      5-min Rain = 0
KAMH 141905Z 05008KT 11/M01 A3037 RMK A01 T01121014  RH  042%=      5-min Rain = 0
KAMH 141910Z 07008G13KT 11/M02 A3037 RMK A01 T01121015  RH  042%=      5-min Rain = 0
KAMH 141915Z 06007G13KT 11/M02 A3037 RMK A01 T01101016  RH  042%=      5-min Rain = 0
KAMH 141920Z 04007KT 12/M02 A3037 RMK A01 T01161015  RH  040%=      5-min Rain = 0
KAMH 141925Z 05007G12KT 12/M02 A3037 RMK A01 T01151016  RH  040%=      5-min Rain = 0
KAMH 141930Z 07008KT 11/M02 A3036 RMK A01 T01141017  RH  040%=      5-min Rain = 0
KAMH 141935Z 08008KT 12/M02 A3036 RMK A01 T01161017  RH  040%=      5-min Rain = 0
KAMH 141940Z 04007G15KT 12/M02 A3036 RMK A01 T01201016  RH  039%=      5-min Rain = 0
KAMH 141945Z 04006G12KT 12/M02 A3036 RMK A01 T01191018  RH  039%=      5-min Rain = 0
KAMH 141950Z 04005G12KT 12/M02 A3036 RMK A01 T01181018  RH  039%=      5-min Rain = 0
KAMH 141955Z 04008G14KT 12/M02 A3036 RMK A01 T01181022  RH  038%=      5-min Rain = 0
KAMH 142000Z 04006KT 12/M02 A3036 RMK A01 T01191019  RH  039%=      5-min Rain = 0
KAMH 142005Z 10005KT 12/M02 A3035 RMK A01 T01191019  RH  039%=      5-min Rain = 0
KAMH 142010Z 08006KT 12/M02 A3035 RMK A01 T01191019  RH  039%=      5-min Rain = 0
KAMH 142015Z 04006G11KT 12/M02 A3035 RMK A01 T01221020  RH  037%=      5-min Rain = 0
KAMH 142020Z 06005G13KT 12/M02 A3035 RMK A01 T01201021  RH  038%=      5-min Rain = 0
KAMH 142025Z 07009KT 12/M02 A3035 RMK A01 T01241021  RH  037%=      5-min Rain = 0
KAMH 142030Z 05005G10KT 12/M02 A3035 RMK A01 T01221020  RH  037%=      5-min Rain = 0
KAMH 142035Z 07008KT 12/M02 A3035 RMK A01 T01231021  RH  037%=      5-min Rain = 0
KAMH 142040Z 05006KT 12/M02 A3035 RMK A01 T01201022  RH  037%=      5-min Rain = 0
KAMH 142045Z 05004KT 12/M02 A3035 RMK A01 T01181022  RH  038%=      5-min Rain = 0
KAMH 142050Z 08006KT 12/M02 A3035 RMK A01 T01221022  RH  037%=      5-min Rain = 0
KAMH 142055Z 10006KT 12/M02 A3035 RMK A01 T01211023  RH  037%=      5-min Rain = 0
KAMH 142100Z 10005KT 12/M02 A3035 RMK A01 T01191023  RH  037%=      5-min Rain = 0
KAMH 142105Z 11003KT 12/M02 A3035 RMK A01 T01221022  RH  037%=      5-min Rain = 0
KAMH 142110Z 13003KT 12/M02 A3035 RMK A01 T01241023  RH  036%=      5-min Rain = 0
KAMH 142115Z 10005KT 12/M02 A3035 RMK A01 T01241022  RH  036%=      5-min Rain = 0
KAMH 142120Z 07007KT 12/M02 A3035 RMK A01 T01231022  RH  037%=      5-min Rain = 0
KAMH 142125Z 08007G12KT 13/M02 A3035 RMK A01 T01251021  RH  036%=      5-min Rain = 0
KAMH 142130Z 09008KT 12/M02 A3035 RMK A01 T01241021  RH  037%=      5-min Rain = 0
KAMH 142135Z 07007KT 12/M02 A3035 RMK A01 T01221022  RH  037%=      5-min Rain = 0
KAMH 142140Z 07005KT 12/M02 A3035 RMK A01 T01211022  RH  037%=      5-min Rain = 0
KAMH 142145Z 07003KT 12/M02 A3035 RMK A01 T01211023  RH  037%=      5-min Rain = 0
KAMH 142150Z 16001KT 12/M02 A3035 RMK A01 T01241021  RH  037%=      5-min Rain = 0
KAMH 142155Z 07005KT 13/M02 A3035 RMK A01 T01251022  RH  036%=      5-min Rain = 0
KAMH 142200Z 09004KT 12/M02 A3035 RMK A01 T01231021  RH  037%=      5-min Rain = 0
KAMH 142205Z 05004KT 12/M02 A3035 RMK A01 T01231022  RH  037%=      5-min Rain = 0
KAMH 142210Z 06003KT 12/M02 A3035 RMK A01 T01221022  RH  037%=      5-min Rain = 0
KAMH 142215Z 07003G9KT 12/M02 A3035 RMK A01 T01221022  RH  037%=      5-min Rain = 0
KAMH 142220Z 10002KT 12/M02 A3035 RMK A01 T01201023  RH  037%=      5-min Rain = 0
KAMH 142225Z 07006KT 12/M02 A3035 RMK A01 T01201021  RH  038%=      5-min Rain = 0
KAMH 142230Z 07006KT 12/M02 A3035 RMK A01 T01191022  RH  038%=      5-min Rain = 0
KAMH 142235Z 05005KT 12/M02 A3035 RMK A01 T01171023  RH  038%=      5-min Rain = 0
KAMH 142240Z 06004KT 12/M02 A3035 RMK A01 T01171022  RH  038%=      5-min Rain = 0
KAMH 142245Z 11005KT 12/M02 A3035 RMK A01 T01171021  RH  038%=      5-min Rain = 0
KAMH 142250Z 12004KT 12/M02 A3035 RMK A01 T01151022  RH  039%=      5-min Rain = 0
KAMH 142255Z 10004KT 12/M02 A3035 RMK A01 T01151022  RH  039%=      5-min Rain = 0
KAMH 142300Z 07004KT 11/M02 A3035 RMK A01 T01141022  RH  039%=      5-min Rain = 0
KAMH 142305Z 11003KT 11/M02 A3035 RMK A01 T01121023  RH  039%=      5-min Rain = 0
KAMH 142310Z 12003KT 11/M02 A3035 RMK A01 T01111023  RH  039%=      5-min Rain = 0
KAMH 142315Z 10003KT 11/M02 A3036 RMK A01 T01091022  RH  040%=      5-min Rain = 0
KAMH 142320Z 09004KT 11/M02 A3036 RMK A01 T01051023  RH  041%=      5-min Rain = 0
KAMH 142325Z 10004KT 10/M02 A3036 RMK A01 T00991023  RH  043%=      5-min Rain = 0
KAMH 142330Z 09004KT 10/M02 A3036 RMK A01 T00951021  RH  044%=      5-min Rain = 0
KAMH 142335Z 10004KT 09/M02 A3036 RMK A01 T00921024  RH  044%=      5-min Rain = 0
KAMH 142340Z 10003KT 09/M02 A3036 RMK A01 T00891024  RH  045%=      5-min Rain = 0
KAMH 142345Z 11003KT 09/M03 A3036 RMK A01 T00861025  RH  046%=      5-min Rain = 0
KAMH 142350Z 12002KT 09/M02 A3036 RMK A01 T00851024  RH  047%=      5-min Rain = 0
KAMH 142355Z 13003KT 08/M02 A3036 RMK A01 T00841024  RH  047%=      5-min Rain = 0
KAMH 150000Z 13002KT 08/M03 A3037 RMK A01 T00821025  RH  047%=      5-min Rain = 0
KAMH 150005Z 13002KT 08/M03 A3037 RMK A01 T00811027  RH  047%=      5-min Rain = 0
KAMH 150010Z 13003KT 08/M03 A3037 RMK A01 T00771028  RH  048%=      5-min Rain = 0
KAMH 150015Z 12004KT 07/M03 A3037 RMK A01 T00741027  RH  049%=      5-min Rain = 0
KAMH 150020Z 12003KT 07/M03 A3037 RMK A01 T00731027  RH  049%=      5-min Rain = 0
KAMH 150025Z 11003KT 07/M03 A3038 RMK A01 T00731025  RH  050%=      5-min Rain = 0
KAMH 150030Z 11003KT 07/M03 A3038 RMK A01 T00721026  RH  050%=      5-min Rain = 0
KAMH 150035Z 11003KT 07/M03 A3038 RMK A01 T00691027  RH  051%=      5-min Rain = 0
KAMH 150040Z 11003KT 07/M03 A3038 RMK A01 T00681027  RH  051%=      5-min Rain = 0
KAMH 150045Z 14002KT 07/M03 A3038 RMK A01 T00671027  RH  051%=      5-min Rain = 0
KAMH 150050Z 14003KT 06/M03 A3039 RMK A01 T00641028  RH  052%=      5-min Rain = 0
KAMH 150055Z 13002KT 06/M03 A3039 RMK A01 T00631028  RH  053%=      5-min Rain = 0
KAMH 150100Z 15003KT 06/M03 A3039 RMK A01 T00611029  RH  053%=      5-min Rain = 0
KAMH 150105Z 13003KT 06/M03 A3039 RMK A01 T00591030  RH  053%=      5-min Rain = 0
KAMH 150110Z 13003KT 06/M03 A3039 RMK A01 T00591029  RH  053%=      5-min Rain = 0
KAMH 150115Z 14002KT 06/M03 A3039 RMK A01 T00581029  RH  054%=      5-min Rain = 0
KAMH 150120Z 15002KT 05/M03 A3039 RMK A01 T00541031  RH  055%=      5-min Rain = 0
KAMH 150125Z 13002KT 05/M03 A304 RMK A01 T00541029  RH  055%=      5-min Rain = 0
KAMH 150130Z 13003KT 05/M03 A304 RMK A01 T00531031  RH  055%=      5-min Rain = 0
KAMH 150135Z 14003KT 05/M03 A304 RMK A01 T00511031  RH  056%=      5-min Rain = 0
KAMH 150140Z 15003KT 05/M03 A304 RMK A01 T00511030  RH  056%=      5-min Rain = 0
KAMH 150145Z 15003KT 05/M03 A304 RMK A01 T00511030  RH  056%=      5-min Rain = 0
KAMH 150150Z 14003KT 05/M03 A304 RMK A01 T00501031  RH  056%=      5-min Rain = 0
KAMH 150155Z 15003KT 05/M03 A304 RMK A01 T00491031  RH  056%=      5-min Rain = 0
KAMH 150200Z 16003KT 05/M03 A304 RMK A01 T00461032  RH  057%=      5-min Rain = 0
KAMH 150205Z 16004KT 04/M03 A304 RMK A01 T00431032  RH  058%=      5-min Rain = 0
KAMH 150210Z 15004KT 04/M03 A304 RMK A01 T00421031  RH  059%=      5-min Rain = 0
KAMH 150215Z 15004KT 04/M03 A304 RMK A01 T00421031  RH  059%=      5-min Rain = 0
KAMH 150220Z 15004KT 04/M03 A304 RMK A01 T00421031  RH  059%=      5-min Rain = 0
KAMH 150225Z 15004KT 04/M03 A304 RMK A01 T00401032  RH  060%=      5-min Rain = 0
KAMH 150230Z 15004KT 04/M03 A304 RMK A01 T00371033  RH  061%=      5-min Rain = 0
KAMH 150235Z 15003KT 04/M03 A304 RMK A01 T00351033  RH  062%=      5-min Rain = 0
KAMH 150240Z 16004KT 03/M03 A304 RMK A01 T00331033  RH  063%=      5-min Rain = 0
KAMH 150245Z 16004KT 03/M03 A3041 RMK A01 T00331032  RH  063%=      5-min Rain = 0
KAMH 150250Z 17004KT 03/M03 A3041 RMK A01 T00331031  RH  063%=      5-min Rain = 0
KAMH 150255Z 17004KT 03/M03 A3041 RMK A01 T00341029  RH  063%=      5-min Rain = 0
KAMH 150300Z 17004KT 03/M03 A3041 RMK A01 T00331029  RH  064%=      5-min Rain = 0
KAMH 150305Z 17004KT 03/M03 A3041 RMK A01 T00311030  RH  065%=      5-min Rain = 0
KAMH 150310Z 17004KT 03/M03 A3041 RMK A01 T00311030  RH  065%=      5-min Rain = 0
KAMH 150315Z 17005KT 03/M03 A3041 RMK A01 T00311029  RH  065%=      5-min Rain = 0
KAMH 150320Z 18005KT 03/M03 A3041 RMK A01 T00311029  RH  065%=      5-min Rain = 0
KAMH 150325Z 19005KT 03/M03 A3042 RMK A01 T00301028  RH  066%=      5-min Rain = 0
KAMH 150330Z 20006KT 03/M03 A3042 RMK A01 T00301025  RH  067%=      5-min Rain = 0
KAMH 150335Z 20006KT 03/M02 A3042 RMK A01 T00331023  RH  067%=      5-min Rain = 0
KAMH 150340Z 20006KT 04/M02 A3042 RMK A01 T00351023  RH  066%=      5-min Rain = 0
KAMH 150345Z 20006KT 03/M02 A3042 RMK A01 T00341024  RH  066%=      5-min Rain = 0
KAMH 150350Z 20005KT 03/M03 A3042 RMK A01 T00311025  RH  067%=      5-min Rain = 0
KAMH 150355Z 21005KT 03/M02 A3042 RMK A01 T00301024  RH  068%=      5-min Rain = 0
KAMH 150400Z 21005KT 03/M02 A3042 RMK A01 T00331022  RH  068%=      5-min Rain = 0
KAMH 150405Z 21005KT 03/M02 A3042 RMK A01 T00331023  RH  067%=      5-min Rain = 0
KAMH 150410Z 21005KT 03/M03 A3042 RMK A01 T00301025  RH  068%=      5-min Rain = 0
KAMH 150415Z 21004KT 03/M03 A3042 RMK A01 T00271026  RH  068%=      5-min Rain = 0
KAMH 150420Z 22005KT 03/M03 A3042 RMK A01 T00251028  RH  068%=      5-min Rain = 0
KAMH 150425Z 22006KT 02/M03 A3042 RMK A01 T00241030  RH  068%=      5-min Rain = 0
KAMH 150430Z 22006KT 02/M03 A3042 RMK A01 T00231031  RH  068%=      5-min Rain = 0
KAMH 150435Z 23007KT 02/M03 A3042 RMK A01 T00211031  RH  069%=      5-min Rain = 0
KAMH 150440Z 22005KT 02/M03 A3043 RMK A01 T00191031  RH  070%=      5-min Rain = 0
KAMH 150445Z 22006KT 02/M03 A3043 RMK A01 T00191032  RH  070%=      5-min Rain = 0
KAMH 150450Z 22006KT 02/M03 A3042 RMK A01 T00191031  RH  070%=      5-min Rain = 0
KAMH 150455Z 21004KT 02/M03 A3042 RMK A01 T00181031  RH  070%=      5-min Rain = 0
KAMH 150500Z 20003KT 01/M04 A3042 RMK A01 T00111036  RH  071%=      5-min Rain = 0
KAMH 150505Z 20004KT 00/M04 A3042 RMK A01 T00011040  RH  074%=      5-min Rain = 0
KAMH 150510Z 21005KT 00/M03 A3042 RMK A01 T00011034  RH  078%=      5-min Rain = 0
KAMH 150515Z 21005KT 01/M03 A3042 RMK A01 T00111027  RH  076%=      5-min Rain = 0
KAMH 150520Z 21005KT 02/M03 A3042 RMK A01 T00161027  RH  073%=      5-min Rain = 0
KAMH 150525Z 21004KT 02/M03 A3042 RMK A01 T00151029  RH  073%=      5-min Rain = 0
KAMH 150530Z 21004KT 01/M04 A3042 RMK A01 T00101035  RH  072%=      5-min Rain = 0
KAMH 150535Z 21006KT 01/M03 A3042 RMK A01 T00131027  RH  075%=      5-min Rain = 0
KAMH 150540Z 22006KT 02/M03 A3042 RMK A01 T00191026  RH  073%=      5-min Rain = 0
KAMH 150545Z 22006KT 02/M03 A3042 RMK A01 T00201027  RH  072%=      5-min Rain = 0
KAMH 150550Z 22006KT 02/M03 A3042 RMK A01 T00181029  RH  072%=      5-min Rain = 0
KAMH 150555Z 23007KT 02/M03 A3042 RMK A01 T00161030  RH  072%=      5-min Rain = 0

Page generated in 0.0094 seconds.